Terminal Aerodrome Forecast
Issued by NWS Shreveport, LA

Home | Current Version | Previous Version | Text Only | Print | Product List | Glossary On
Versions: 1 2 3 4 5 6 7 8 9 10 11 12 13 14 15 16 17 18 19 20 21 22
000
FTUS44 KSHV 251714 RRA
TAFSHV

TAF
KSHV 251740Z 2518/2618 17010KT P6SM SCT015
     FM252100 18014G22KT P6SM VCTS BKN035CB OVC060
     FM260000 17012KT 4SM TSRA BR OVC035CB
     FM260700 16010KT 5SM -SHRA VCTS OVC020CB
     FM261200 19007KT 5SM BR OVC025
     FM261500 21013KT P6SM BKN025=

USA.gov is the U.S. government's official web portal to all federal, state and local government web resources and services.